Time;durP1;ratioP1;P1;durP2;ratioP2;P2;SDS_P1;SDS_P2;PMS_P1;PMS_P2;Temp;Humidity;BMP_temperature;BMP_pressure;BME280_temperature;BME280_humidity;BME280_pressure;Samples;Min_cycle;Max_cycle;Signal;HPM_P1;HPM_P2
2022/08/22 13:53:42;;;;;;;5.75;2.98;;;;;;;29.38;48.30;94910.63;1802598;79;23045;-69
2022/08/22 13:56:23;;;;;;;5.28;2.50;;;;;;;29.02;47.95;94914.26;1762921;81;21043;-69
2022/08/22 13:58:59;;;;;;;4.65;2.85;;;;;;;28.57;48.82;94911.66;1762768;81;21137;-69
2022/08/22 14:01:52;;;;;;;6.92;2.90;;;;;;;27.98;49.08;94918.81;1762839;81;21038;-69
2022/08/22 14:04:30;;;;;;;6.30;4.03;;;;;;;27.59;52.38;94920.34;1762670;81;21547;-70
2022/08/22 14:07:07;;;;;;;5.33;2.90;;;;;;;27.27;56.30;94930.20;1762545;81;21038;-70
2022/08/22 14:09:54;;;;;;;3.95;2.70;;;;;;;27.43;53.67;94932.80;1763011;81;21035;-69
2022/08/22 14:12:43;;;;;;;3.87;2.90;;;;;;;27.17;52.47;94939.67;1762732;81;21023;-68
2022/08/22 14:15:11;;;;;;;9.20;3.15;;;;;;;27.28;53.78;94929.19;1762916;81;21501;-68
2022/08/22 14:17:42;;;;;;;7.28;3.70;;;;;;;27.71;52.12;94929.62;1762690;81;21027;-68
2022/08/22 14:20:27;;;;;;;4.80;3.25;;;;;;;27.89;53.42;94933.27;1762783;81;21035;-68
2022/08/22 14:22:59;;;;;;;5.42;3.17;;;;;;;27.89;53.42;94933.27;1763045;81;21061;-68
2022/08/22 14:25:31;;;;;;;5.80;2.98;;;;;;;27.61;52.72;94935.08;1763243;81;21027;-72
2022/08/22 14:28:06;;;;;;;3.20;2.90;;;;;;;27.28;54.05;94936.47;1762665;81;21532;-70
2022/08/22 14:30:50;;;;;;;9.13;3.10;;;;;;;28.10;53.90;94937.58;1762908;81;21015;-69
2022/08/22 14:33:27;;;;;;;6.00;3.10;;;;;;;29.15;50.13;94935.61;1762641;81;21518;-69
2022/08/22 14:35:58;;;;;;;7.83;2.90;;;;;;;29.89;48.56;94935.59;1762665;81;21003;-70
2022/08/22 14:38:36;;;;;;;11.30;3.33;;;;;;;30.49;46.45;94933.29;1744050;81;21015;-70
2022/08/22 14:41:13;;;;;;;6.28;2.70;;;;;;;30.86;45.99;94938.80;1762871;81;21034;-70
2022/08/22 14:43:57;;;;;;;4.90;2.58;;;;;;;31.29;45.45;94942.73;1763121;81;21532;-70
2022/08/22 14:46:52;;;;;;;10.28;3.17;;;;;;;31.65;44.34;94938.63;1763059;81;21018;-70
2022/08/22 14:49:34;;;;;;;7.65;3.00;;;;;;;32.14;44.55;94945.82;1743362;81;21050;-70
2022/08/22 14:52:11;;;;;;;5.12;2.65;;;;;;;32.20;42.09;94948.35;1762761;81;21039;-70
2022/08/22 14:54:38;;;;;;;4.37;2.62;;;;;;;31.40;42.57;94953.30;1763237;81;21059;-70
2022/08/22 14:57:12;;;;;;;3.60;2.58;;;;;;;30.19;45.09;94949.67;1763215;81;21020;-70
2022/08/22 14:59:46;;;;;;;6.83;3.15;;;;;;;29.43;47.09;94943.10;1763273;81;21541;-70
2022/08/22 15:02:18;;;;;;;4.33;3.10;;;;;;;29.06;48.60;94951.52;1762680;81;21497;-69
2022/08/22 15:04:49;;;;;;;6.53;3.40;;;;;;;29.40;49.45;94953.45;1762269;81;21509;-69
2022/08/22 15:07:23;;;;;;;4.17;2.72;;;;;;;30.05;48.31;94957.08;1762639;81;20975;-69
2022/08/22 15:09:55;;;;;;;4.25;2.58;;;;;;;30.45;46.75;94955.05;1762677;81;21504;-70
2022/08/22 15:12:38;;;;;;;2.60;2.40;;;;;;;30.04;46.99;94963.52;1745885;81;21500;-69
2022/08/22 15:15:34;;;;;;;7.20;2.85;;;;;;;29.68;48.20;94958.24;1762561;81;21062;-69
2022/08/22 15:18:17;;;;;;;8.73;2.85;;;;;;;29.89;47.73;94955.99;1762610;81;21003;-69
2022/08/22 15:20:45;;;;;;;3.02;2.33;;;;;;;29.33;48.31;94959.53;1762689;81;20988;-69
2022/08/22 15:23:22;;;;;;;4.05;2.52;;;;;;;29.16;49.49;94957.70;1762262;81;21062;-69
2022/08/22 15:26:04;;;;;;;8.05;3.52;;;;;;;29.02;49.75;94961.79;1762627;81;21011;-69
2022/08/22 15:28:34;;;;;;;2.92;2.42;;;;;;;28.59;50.63;94971.57;1762924;81;21488;-69
2022/08/22 15:31:09;;;;;;;6.40;5.35;;;;;;;28.23;51.26;94980.98;1762364;81;21473;-69
2022/08/22 15:33:44;;;;;;;7.05;3.95;;;;;;;27.84;52.20;94978.95;1760538;81;20975;-69
2022/08/22 15:36:24;;;;;;;11.38;4.50;;;;;;;27.50;52.90;94982.69;1762971;81;21015;-74
2022/08/22 15:39:15;;;;;;;5.30;3.05;;;;;;;27.09;54.75;94982.88;1762498;81;21038;-70
2022/08/22 15:41:47;;;;;;;19.27;8.03;;;;;;;26.72;55.78;94982.24;1762314;81;21062;-73
2022/08/22 15:55:30;;;;;;;3.02;1.40;;;;;;;26.81;51.91;95052.75;1860188;77;22929;-70
2022/08/22 15:58:03;;;;;;;2.17;1.42;;;;;;;25.66;52.31;95066.53;1832309;78;20953;-69
2022/08/22 16:00:35;;;;;;;4.10;1.20;;;;;;;24.93;53.57;95074.98;1831753;78;21024;-70
2022/08/22 16:03:09;;;;;;;3.42;0.93;;;;;;;24.11;54.97;95081.60;1832518;78;20972;-70
2022/08/22 16:05:56;;;;;;;3.67;1.10;;;;;;;23.41;56.30;95077.25;1832213;78;21012;-68
2022/08/22 16:08:37;;;;;;;1.92;1.27;;;;;;;22.97;56.49;95073.89;1832274;78;21003;-70
2022/08/22 16:11:12;;;;;;;3.05;1.30;;;;;;;22.43;56.87;95054.58;1832398;78;21552;-67
2022/08/22 16:13:43;;;;;;;2.62;1.50;;;;;;;22.23;57.74;95045.78;1832343;78;21031;-69
2022/08/22 16:16:42;;;;;;;1.72;1.40;;;;;;;22.03;59.03;95035.11;1832419;78;21528;-69
2022/08/22 16:19:19;;;;;;;2.62;2.10;;;;;;;21.97;59.10;95025.68;1799383;78;21492;-69
2022/08/22 16:21:54;;;;;;;4.33;2.10;;;;;;;21.74;59.52;95032.68;1832558;78;21008;-69
2022/08/22 16:24:27;;;;;;;7.17;2.12;;;;;;;21.56;60.76;95038.03;1832240;78;21023;-69
2022/08/22 16:26:54;;;;;;;7.72;2.47;;;;;;;21.51;61.47;95045.06;1832614;78;20928;-69
2022/08/22 16:29:35;;;;;;;5.85;2.05;;;;;;;21.49;64.79;95052.36;1832624;78;20992;-69
2022/08/22 16:32:08;;;;;;;11.43;4.15;;;;;;;21.45;64.46;95057.58;1832315;78;21043;-69
2022/08/22 16:34:40;;;;;;;7.55;4.40;;;;;;;21.39;65.23;95068.27;1832321;78;21023;-70
2022/08/22 16:37:24;;;;;;;12.18;3.42;;;;;;;21.38;65.95;95084.44;1832313;78;21047;-69
2022/08/22 16:40:04;;;;;;;5.58;1.80;;;;;;;21.38;65.94;95092.48;1832289;78;21012;-68
2022/08/22 16:42:41;;;;;;;10.40;2.70;;;;;;;21.46;66.43;95098.70;1832152;78;21517;-69
2022/08/22 16:45:22;;;;;;;3.62;1.80;;;;;;;21.43;66.92;95102.45;1800485;78;21007;-69
2022/08/22 16:47:54;;;;;;;3.58;2.17;;;;;;;21.38;67.13;95105.91;1830399;78;21042;-69
2022/08/22 16:50:35;;;;;;;9.35;2.70;;;;;;;21.34;68.56;95105.27;1800974;78;21487;-69
2022/08/22 16:53:38;;;;;;;5.25;2.15;;;;;;;21.35;69.14;95107.47;1832195;78;21485;-70
2022/08/22 16:56:40;;;;;;;3.50;3.07;;;;;;;21.37;69.54;95109.56;1832060;78;21091;-69
2022/08/22 16:59:24;;;;;;;8.00;2.80;;;;;;;21.30;68.69;95111.80;1789331;78;21027;-70
2022/08/22 17:02:23;;;;;;;4.17;2.15;;;;;;;21.28;69.49;95111.53;1831817;78;21008;-69
2022/08/22 17:05:19;;;;;;;4.87;1.80;;;;;;;21.25;69.60;95103.20;1831838;78;21035;-70
2022/08/22 17:08:03;;;;;;;3.22;2.75;;;;;;;21.17;69.52;95106.42;1830819;78;20980;-69
2022/08/22 17:11:07;;;;;;;5.03;2.33;;;;;;;21.12;70.30;95106.36;1794657;78;21528;-68
2022/08/22 17:13:51;;;;;;;11.48;2.30;;;;;;;21.12;70.45;95114.41;1831829;78;21481;-69
2022/08/22 17:16:42;;;;;;;11.18;3.17;;;;;;;21.03;70.43;95119.89;1794174;78;21555;-69
2022/08/22 17:19:56;;;;;;;5.62;2.15;;;;;;;21.01;70.34;95116.94;1831675;78;21012;-69
2022/08/22 17:23:03;;;;;;;7.08;2.75;;;;;;;21.02;70.69;95113.31;1831758;78;21034;-69
2022/08/22 17:25:53;;;;;;;6.85;2.72;;;;;;;20.99;70.42;95120.20;1831541;78;21079;-69
2022/08/22 17:28:37;;;;;;;3.77;2.25;;;;;;;20.90;71.47;95129.73;1831945;78;20984;-69
2022/08/22 17:31:43;;;;;;;5.90;2.22;;;;;;;20.81;71.31;95116.93;1831448;78;21051;-69
2022/08/22 17:34:39;;;;;;;5.10;2.15;;;;;;;20.80;71.94;95118.75;1831723;78;21012;-69
2022/08/22 17:37:20;;;;;;;4.58;1.90;;;;;;;20.71;73.04;95120.70;1831807;78;21023;-68
2022/08/22 17:40:15;;;;;;;3.77;1.92;;;;;;;20.57;73.94;95118.09;1831888;78;21004;-69
2022/08/22 17:43:06;;;;;;;7.10;2.85;;;;;;;20.48;74.14;95122.17;1799872;78;21023;-69
2022/08/22 17:45:59;;;;;;;7.33;1.90;;;;;;;20.38;74.90;95122.39;1765654;78;21026;-69
2022/08/22 17:48:39;;;;;;;7.25;2.20;;;;;;;20.33;74.88;95134.74;1831996;78;21026;-70
2022/08/22 17:51:27;;;;;;;6.03;2.12;;;;;;;20.33;74.83;95140.10;1831682;78;21008;-70
2022/08/22 17:54:00;;;;;;;2.77;2.10;;;;;;;20.29;75.35;95138.11;1831568;78;20992;-69
2022/08/22 17:56:44;;;;;;;10.15;2.42;;;;;;;20.30;76.09;95142.50;1831945;78;21000;-69
2022/08/22 17:59:20;;;;;;;7.60;2.80;;;;;;;20.27;75.60;95154.76;1831781;78;20976;-70
2022/08/22 18:02:09;;;;;;;4.47;2.25;;;;;;;20.23;76.37;95155.90;1831906;78;20972;-69
2022/08/22 18:04:44;;;;;;;6.30;2.20;;;;;;;20.19;76.35;95165.11;1829736;78;21008;-69
2022/08/22 18:07:40;;;;;;;5.08;3.00;;;;;;;20.22;77.88;95154.67;1831316;77;21449;-68
2022/08/22 18:10:33;;;;;;;7.92;2.15;;;;;;;20.25;77.75;95159.83;1831733;78;20996;-69
2022/08/22 18:13:29;;;;;;;7.17;2.45;;;;;;;20.21;77.69;95163.66;1831038;78;21022;-69
2022/08/22 18:16:13;;;;;;;6.50;2.33;;;;;;;20.20;77.28;95164.62;1831046;78;21515;-69
2022/08/22 18:18:48;;;;;;;6.15;2.42;;;;;;;20.17;76.92;95167.02;1831072;78;21040;-69
2022/08/22 18:21:30;;;;;;;6.95;2.90;;;;;;;20.05;77.08;95159.75;1831806;78;20987;-69
2022/08/22 18:24:15;;;;;;;4.35;3.17;;;;;;;20.07;77.40;95154.68;1831600;78;21511;-69
2022/08/22 18:27:03;;;;;;;8.98;3.37;;;;;;;20.13;77.04;95160.13;1831760;78;21484;-68
2022/08/22 18:29:44;;;;;;;8.08;2.95;;;;;;;20.12;77.87;95166.94;1830925;78;21019;-69
2022/08/22 18:32:38;;;;;;;5.45;3.15;;;;;;;20.13;78.36;95177.53;1831106;78;21026;-69
2022/08/22 18:35:10;;;;;;;7.62;3.70;;;;;;;20.08;78.41;95175.63;1817210;78;21015;-69
2022/08/22 18:38:01;;;;;;;6.17;3.12;;;;;;;20.02;78.92;95172.00;1829876;78;21007;-69
2022/08/22 18:40:48;;;;;;;4.22;3.30;;;;;;;19.97;78.59;95168.27;1802958;78;21012;-69
2022/08/22 18:43:38;;;;;;;7.47;3.35;;;;;;;19.98;78.68;95170.00;1796628;78;21521;-69
2022/08/22 18:46:39;;;;;;;7.08;3.37;;;;;;;19.98;79.26;95172.69;1829858;78;21015;-69
2022/08/22 18:49:23;;;;;;;9.38;3.25;;;;;;;20.00;79.63;95169.41;1831797;78;20968;-69
2022/08/22 18:52:19;;;;;;;3.85;3.33;;;;;;;20.00;79.25;95169.41;1831744;78;21000;-69
2022/08/22 18:55:26;;;;;;;5.00;3.17;;;;;;;20.01;79.92;95166.28;1832762;78;21024;-69
2022/08/22 18:58:31;;;;;;;3.15;2.85;;;;;;;20.01;80.65;95168.47;1835093;78;21011;-69
2022/08/22 19:01:26;;;;;;;5.40;3.60;;;;;;;20.03;79.40;95177.73;1835224;78;20996;-69
2022/08/22 19:04:10;;;;;;;7.00;3.25;;;;;;;20.02;80.61;95176.02;1835304;78;21016;-68
2022/08/22 19:07:33;;;;;;;4.97;3.55;;;;;;;20.04;80.25;95183.48;1834072;78;20976;-68
2022/08/22 19:10:22;;;;;;;7.95;3.60;;;;;;;20.07;80.29;95182.80;1834663;78;21012;-68
2022/08/22 19:13:26;;;;;;;4.95;2.45;;;;;;;20.18;80.35;95200.02;1834697;78;21517;-68
2022/08/22 19:16:15;;;;;;;5.53;2.25;;;;;;;20.13;78.90;95204.31;1834330;78;21577;-68
2022/08/22 19:18:53;;;;;;;6.17;2.22;;;;;;;20.06;78.42;95194.97;1834791;78;21028;-68
2022/08/22 19:24:36;;;;;;;7.83;2.42;;;;;;;19.98;77.72;95203.48;1835192;78;21015;-69
2022/08/22 19:27:27;;;;;;;5.17;2.52;;;;;;;19.95;78.17;95204.98;1835143;78;21012;-69
2022/08/22 19:30:15;;;;;;;5.62;2.47;;;;;;;19.90;78.25;95208.42;1688243;85;21594;-69
2022/08/22 19:32:50;;;;;;;6.67;2.05;;;;;;;19.94;78.98;95207.77;1717324;83;21475;-68
2022/08/22 19:35:46;;;;;;;3.52;2.40;;;;;;;19.89;78.57;95197.34;1717191;83;21538;-68
2022/08/22 19:38:41;;;;;;;10.58;2.30;;;;;;;19.81;78.50;95202.31;1714902;83;21534;-68
2022/08/22 19:41:08;;;;;;;6.72;3.00;;;;;;;19.72;78.21;95198.84;1713238;83;21037;-69
2022/08/22 19:43:37;;;;;;;10.45;2.83;;;;;;;19.66;78.53;95194.70;1717099;83;21553;-69
2022/08/22 19:46:08;;;;;;;6.42;2.72;;;;;;;19.69;79.16;95200.38;1717125;83;21052;-69
2022/08/22 19:48:49;;;;;;;5.10;2.25;;;;;;;19.75;79.02;95199.51;1689135;84;21009;-69
2022/08/22 19:51:26;;;;;;;11.05;2.77;;;;;;;19.74;78.59;95209.84;1717068;83;21029;-69
2022/08/22 19:54:06;;;;;;;6.75;3.15;;;;;;;19.69;78.74;95203.91;1717099;83;21073;-68
2022/08/22 19:56:41;;;;;;;5.08;3.05;;;;;;;19.73;78.98;95204.13;1717318;83;20994;-69
2022/08/22 19:59:37;;;;;;;6.05;2.70;;;;;;;19.71;79.09;95199.33;1717225;84;21025;-69
2022/08/22 20:02:40;;;;;;;6.03;2.67;;;;;;;19.65;79.29;95205.01;1717131;83;21556;-69
2022/08/22 20:05:24;;;;;;;6.33;3.25;;;;;;;19.62;79.41;95202.52;1717117;83;21088;-70
2022/08/22 20:08:16;;;;;;;6.05;2.87;;;;;;;19.52;78.65;95200.88;1717264;83;20978;-70
2022/08/22 20:11:39;;;;;;;6.60;2.77;;;;;;;19.41;78.88;95208.22;1716916;84;21029;-69
2022/08/22 20:14:26;;;;;;;6.15;2.70;;;;;;;19.31;78.88;95216.88;1717231;83;21065;-69
2022/08/22 20:17:29;;;;;;;7.42;2.95;;;;;;;19.17;80.10;95217.19;1717385;84;21033;-70
2022/08/22 20:20:00;;;;;;;5.97;3.15;;;;;;;19.10;81.30;95221.66;1717285;83;21013;-69
2022/08/22 20:22:49;;;;;;;9.63;3.27;;;;;;;18.97;81.24;95233.05;1717118;84;20990;-69
2022/08/22 20:25:24;;;;;;;5.55;3.25;;;;;;;18.93;81.67;95230.19;1716918;84;21083;-69
2022/08/22 20:28:02;;;;;;;5.75;2.60;;;;;;;18.91;81.52;95237.91;1716414;84;21049;-69
2022/08/22 20:30:40;;;;;;;7.60;3.00;;;;;;;18.86;81.22;95238.64;1710029;84;21129;-69
2022/08/22 20:33:16;;;;;;;6.17;3.40;;;;;;;18.75;81.18;95236.56;1706909;84;21037;-68
2022/08/22 20:35:48;;;;;;;9.25;3.08;;;;;;;18.76;81.10;95228.95;1710484;84;21003;-69
2022/08/22 20:38:20;;;;;;;9.13;3.22;;;;;;;18.78;80.80;95223.05;1706709;84;20982;-69
2022/08/22 20:41:15;;;;;;;8.03;3.27;;;;;;;18.75;80.89;95222.75;1710803;84;21524;-69
2022/08/22 20:44:02;;;;;;;6.80;2.52;;;;;;;18.74;81.51;95226.31;1710464;84;21031;-67
2022/08/22 20:46:52;;;;;;;8.63;2.70;;;;;;;18.73;81.24;95227.76;1710166;84;21126;-68
2022/08/22 20:49:36;;;;;;;7.78;2.33;;;;;;;18.66;81.07;95221.03;1710503;84;21481;-69
2022/08/22 20:52:08;;;;;;;5.80;2.47;;;;;;;18.58;80.80;95229.48;1710500;84;21051;-70
2022/08/22 20:54:38;;;;;;;7.30;2.47;;;;;;;18.53;81.04;95230.20;1709727;84;21536;-70
2022/08/22 20:57:18;;;;;;;10.00;2.80;;;;;;;18.55;81.59;95228.32;1710540;84;21011;-70
2022/08/22 20:59:55;;;;;;;8.88;2.77;;;;;;;18.55;81.69;95235.86;1710493;84;21136;-70
2022/08/22 21:02:36;;;;;;;6.20;3.00;;;;;;;18.51;81.31;95230.77;1710565;84;21000;-68
2022/08/22 21:05:08;;;;;;;9.45;3.02;;;;;;;18.38;81.32;95230.09;1710358;84;21565;-68
2022/08/22 21:07:39;;;;;;;4.40;2.80;;;;;;;18.29;81.96;95237.75;1710273;84;21074;-69
2022/08/22 21:13:32;;;;;;;5.00;2.80;;;;;;;18.37;82.30;95239.08;1710528;84;21019;-68
2022/08/22 21:16:14;;;;;;;6.72;2.47;;;;;;;18.27;82.49;95241.86;1710383;84;20991;-68
2022/08/22 21:18:45;;;;;;;9.75;2.87;;;;;;;18.22;82.11;95237.24;1706931;84;21085;-70
2022/08/22 21:21:25;;;;;;;4.00;2.33;;;;;;;18.16;82.56;95240.23;1710259;84;21508;-70
2022/08/22 21:23:58;;;;;;;10.20;2.90;;;;;;;18.09;82.24;95236.16;1710353;84;20971;-69
2022/08/22 21:26:46;;;;;;;6.55;3.15;;;;;;;18.09;82.49;95229.48;1682113;84;21031;-69
2022/08/22 21:29:18;;;;;;;5.78;2.83;;;;;;;18.08;82.62;95225.10;1712680;84;20995;-69
2022/08/22 21:31:55;;;;;;;5.67;3.27;;;;;;;18.00;82.31;95225.52;1715180;84;20987;-69
2022/08/22 21:34:37;;;;;;;8.83;2.90;;;;;;;18.00;82.31;95225.52;1715120;84;21888;-69
2022/08/22 21:37:17;;;;;;;7.83;2.83;;;;;;;18.00;82.08;95225.99;1712677;84;21499;-68
2022/08/22 21:39:52;;;;;;;7.25;2.70;;;;;;;17.90;82.35;95223.80;1714916;83;21487;-68
2022/08/22 21:42:33;;;;;;;7.53;2.80;;;;;;;17.88;82.69;95228.84;1715014;84;21016;-69
2022/08/22 21:45:21;;;;;;;8.03;3.00;;;;;;;17.89;82.84;95227.44;1715182;84;21026;-70
2022/08/22 21:47:48;;;;;;;8.10;2.70;;;;;;;17.80;82.13;95222.57;1715125;84;20997;-69
2022/08/22 21:50:26;;;;;;;4.58;2.50;;;;;;;17.82;82.21;95219.83;1686299;84;21030;-69
2022/08/22 21:53:10;;;;;;;6.37;3.05;;;;;;;17.77;81.89;95225.85;1714960;84;20972;-68
2022/08/22 21:55:45;;;;;;;5.92;2.62;;;;;;;17.72;82.45;95222.94;1711724;84;21007;-69
2022/08/22 21:58:22;;;;;;;5.30;2.17;;;;;;;17.71;82.78;95216.34;1714950;84;21553;-70
2022/08/22 22:00:55;;;;;;;5.67;2.77;;;;;;;17.66;82.19;95221.05;1714899;84;21043;-69
2022/08/22 22:03:35;;;;;;;3.27;2.70;;;;;;;17.53;82.94;95220.83;1714886;83;21012;-69
2022/08/22 22:06:05;;;;;;;6.45;2.83;;;;;;;17.50;83.24;95217.86;1714973;84;21480;-70
2022/08/22 22:08:33;;;;;;;8.75;2.92;;;;;;;17.50;83.65;95219.19;1715016;83;21466;-70
2022/08/22 22:11:03;;;;;;;7.65;2.92;;;;;;;17.51;82.95;95209.38;1714752;83;21457;-70
2022/08/22 22:13:30;;;;;;;3.98;2.55;;;;;;;17.49;82.95;95220.14;1715029;84;21004;-70
2022/08/22 22:15:57;;;;;;;9.73;2.83;;;;;;;17.48;83.07;95210.40;1714949;83;21505;-70
2022/08/22 22:18:30;;;;;;;6.28;2.77;;;;;;;17.50;83.34;95221.00;1686931;84;21028;-70
2022/08/22 22:20:57;;;;;;;7.67;2.60;;;;;;;17.43;82.96;95204.92;1714976;83;21043;-69
2022/08/22 22:23:25;;;;;;;6.30;2.80;;;;;;;17.36;82.54;95207.50;1714854;84;21561;-69
2022/08/22 22:25:56;;;;;;;5.55;2.35;;;;;;;17.28;82.94;95207.90;1714516;84;21002;-69
2022/08/22 22:28:38;;;;;;;4.58;2.50;;;;;;;17.22;83.54;95210.41;1686131;83;21512;-69
2022/08/22 22:31:06;;;;;;;5.22;2.70;;;;;;;17.20;83.66;95208.29;1704459;84;21066;-69
2022/08/22 22:33:37;;;;;;;10.18;2.80;;;;;;;17.20;83.78;95208.29;1707581;84;20974;-69
2022/08/22 22:36:09;;;;;;;6.65;3.00;;;;;;;17.22;83.82;95204.23;1704225;84;21523;-69
2022/08/22 22:38:38;;;;;;;5.25;2.60;;;;;;;17.28;83.79;95209.23;1707389;84;21005;-69
2022/08/22 22:41:05;;;;;;;3.60;2.62;;;;;;;17.28;83.53;95201.23;1704197;84;21102;-69
2022/08/22 22:43:33;;;;;;;6.35;2.27;;;;;;;17.20;82.91;95204.29;1707298;84;21077;-69
2022/08/22 22:46:00;;;;;;;4.53;2.60;;;;;;;17.14;82.63;95208.61;1704159;84;21532;-69
2022/08/22 22:48:28;;;;;;;4.03;2.80;;;;;;;17.08;82.87;95211.56;1707088;84;21101;-69
2022/08/22 22:50:55;;;;;;;6.33;2.98;;;;;;;17.06;83.03;95204.14;1704166;84;21025;-69
2022/08/22 22:53:23;;;;;;;8.78;2.58;;;;;;;17.04;83.47;95198.87;1707203;84;21022;-69
2022/08/22 22:55:49;;;;;;;5.45;2.20;;;;;;;17.03;83.19;95205.61;1704088;84;21029;-69
2022/08/22 22:58:16;;;;;;;7.83;2.75;;;;;;;17.01;82.91;95200.81;1707090;84;21101;-69
2022/08/22 23:00:43;;;;;;;6.35;2.60;;;;;;;16.96;83.48;95201.52;1704153;84;21540;-69
2022/08/22 23:03:10;;;;;;;12.63;2.58;;;;;;;17.04;84.00;95196.69;1707284;84;21042;-69
2022/08/22 23:05:36;;;;;;;5.15;2.55;;;;;;;17.11;83.63;95198.11;1704400;84;21001;-69
2022/08/22 23:08:03;;;;;;;5.42;2.40;;;;;;;17.12;83.28;95195.83;1707334;84;21006;-69
2022/08/22 23:10:31;;;;;;;6.95;2.47;;;;;;;17.02;82.71;95198.09;1704274;84;21440;-69
2022/08/22 23:12:58;;;;;;;11.35;2.55;;;;;;;16.93;82.66;95201.68;1706876;84;21014;-69
2022/08/22 23:15:26;;;;;;;6.10;2.50;;;;;;;16.86;83.68;95207.80;1704495;84;21041;-69
2022/08/22 23:17:52;;;;;;;8.93;2.85;;;;;;;16.91;84.04;95222.20;1707196;84;21534;-69
2022/08/22 23:20:19;;;;;;;5.70;2.65;;;;;;;16.95;83.85;95208.66;1703817;84;21026;-70
2022/08/22 23:22:46;;;;;;;5.53;2.42;;;;;;;16.98;83.87;95216.97;1686498;84;21023;-69
2022/08/22 23:25:13;;;;;;;9.78;2.42;;;;;;;16.97;83.42;95216.59;1704106;84;21084;-69
2022/08/22 23:27:42;;;;;;;5.47;2.58;;;;;;;16.92;83.20;95220.81;1706995;84;21078;-69
2022/08/22 23:30:10;;;;;;;7.17;2.70;;;;;;;16.95;83.29;95227.31;1703938;84;21018;-69
2022/08/22 23:32:38;;;;;;;9.73;2.72;;;;;;;16.90;83.53;95221.34;1677599;84;21065;-69
2022/08/22 23:35:05;;;;;;;7.40;2.98;;;;;;;16.85;83.56;95224.70;1704153;84;21038;-69
2022/08/22 23:37:33;;;;;;;5.15;2.42;;;;;;;16.75;83.90;95225.59;1707168;84;21026;-69
2022/08/22 23:40:00;;;;;;;4.92;2.45;;;;;;;16.66;83.76;95222.92;1704060;84;21486;-69
2022/08/22 23:42:28;;;;;;;5.87;2.60;;;;;;;16.62;83.54;95217.33;1706824;84;21571;-69
2022/08/22 23:44:54;;;;;;;12.88;2.70;;;;;;;16.58;85.01;95222.87;1704030;84;21152;-69
2022/08/22 23:47:21;;;;;;;8.08;3.35;;;;;;;16.54;84.35;95230.16;1707308;84;21034;-69
2022/08/22 23:49:48;;;;;;;5.80;2.60;;;;;;;16.55;84.16;95228.36;1704044;84;21074;-69
2022/08/22 23:52:15;;;;;;;8.75;2.80;;;;;;;16.54;84.29;95227.50;1707410;84;21033;-69
2022/08/22 23:54:41;;;;;;;4.90;2.27;;;;;;;16.54;84.72;95234.63;1704220;84;21017;-68
2022/08/22 23:57:08;;;;;;;6.12;2.62;;;;;;;16.46;84.08;95227.01;1686704;84;21001;-69
2022/08/22 23:59:37;;;;;;;8.58;2.37;;;;;;;16.43;84.14;95229.34;1704237;84;21559;-69
